Time;durP1;ratioP1;P1;durP2;ratioP2;P2;SDS_P1;SDS_P2;PMS_P1;PMS_P2;Temp;Humidity;BMP_temperature;BMP_pressure;BME280_temperature;BME280_humidity;BME280_pressure;Samples;Min_cycle;Max_cycle;Signal;HPM_P1;HPM_P2
2022/11/08 00:16:39;;;;;;;30.35;21.70;;;;;;;;;;10142064;28;20567;-70
2022/11/08 00:21:33;;;;;;;31.17;24.05;;;;;;;;;;10149830;28;20451;-71
2022/11/08 00:26:26;;;;;;;27.67;21.52;;;;;;;;;;10149322;28;20083;-70
2022/11/08 00:31:20;;;;;;;23.67;17.73;;;;;;;;;;10149732;28;20052;-69
2022/11/08 00:36:14;;;;;;;18.90;16.75;;;;;;;;;;10149047;28;20048;-69
2022/11/08 00:41:08;;;;;;;21.65;16.98;;;;;;;;;;10148885;28;20044;-69
2022/11/08 00:46:02;;;;;;;21.27;18.38;;;;;;;;;;10151655;28;20040;-70
2022/11/08 00:51:00;;;;;;;22.55;18.55;;;;;;;;;;10158186;28;20049;-70
2022/11/08 00:56:04;;;;;;;27.33;18.63;;;;;;;;;;10148550;28;20491;-70
2022/11/08 01:00:57;;;;;;;21.88;18.85;;;;;;;;;;10159571;28;20072;-70
2022/11/08 01:05:53;;;;;;;23.88;19.63;;;;;;;;;;10147384;28;20041;-70
2022/11/08 01:10:48;;;;;;;23.00;19.80;;;;;;;;;;10147438;28;20475;-70
2022/11/08 01:15:44;;;;;;;29.30;20.20;;;;;;;;;;10154545;28;20059;-70
2022/11/08 01:20:40;;;;;;;27.02;21.13;;;;;;;;;;10151065;28;20052;-70
2022/11/08 01:25:36;;;;;;;27.55;21.15;;;;;;;;;;10159462;28;20068;-70
2022/11/08 01:30:29;;;;;;;22.95;19.30;;;;;;;;;;10147648;28;20087;-70
2022/11/08 01:35:22;;;;;;;25.92;20.33;;;;;;;;;;10147156;28;20052;-70
2022/11/08 01:40:16;;;;;;;25.10;20.02;;;;;;;;;;10146790;28;20048;-70
2022/11/08 01:45:10;;;;;;;23.73;20.15;;;;;;;;;;10147448;28;20036;-70
2022/11/08 01:50:10;;;;;;;24.55;18.77;;;;;;;;;;10146810;28;20040;-70
2022/11/08 01:55:09;;;;;;;20.17;16.83;;;;;;;;;;10120924;28;20177;-70
2022/11/08 02:00:07;;;;;;;20.25;18.25;;;;;;;;;;10144650;28;20049;-70
2022/11/08 02:05:03;;;;;;;24.77;19.83;;;;;;;;;;10136682;28;20040;-70
2022/11/08 02:09:57;;;;;;;25.80;20.15;;;;;;;;;;10118307;28;20392;-70
2022/11/08 02:14:50;;;;;;;22.77;20.35;;;;;;;;;;10146770;28;20066;-70
2022/11/08 02:19:48;;;;;;;29.15;22.02;;;;;;;;;;10147423;28;20090;-70
2022/11/08 02:24:42;;;;;;;26.30;23.52;;;;;;;;;;10136692;28;20076;-70
2022/11/08 02:29:36;;;;;;;26.98;24.13;;;;;;;;;;10153994;28;20048;-70
2022/11/08 02:34:45;;;;;;;32.03;27.65;;;;;;;;;;10153956;28;20408;-69
2022/11/08 02:39:38;;;;;;;35.33;29.13;;;;;;;;;;10154217;28;20087;-69
2022/11/08 02:44:31;;;;;;;32.72;28.17;;;;;;;;;;10153557;28;20415;-72
2022/11/08 02:49:25;;;;;;;30.65;27.48;;;;;;;;;;10153546;28;20056;-71
2022/11/08 02:54:19;;;;;;;28.25;24.77;;;;;;;;;;10152844;28;20048;-71
2022/11/08 02:59:12;;;;;;;40.35;26.50;;;;;;;;;;10152872;28;20044;-71
2022/11/08 03:04:05;;;;;;;31.33;25.52;;;;;;;;;;10135436;28;20507;-71
2022/11/08 03:08:58;;;;;;;30.77;24.83;;;;;;;;;;10153514;28;20102;-71
2022/11/08 03:13:52;;;;;;;29.10;26.13;;;;;;;;;;10152541;28;20556;-71
2022/11/08 03:18:45;;;;;;;25.17;22.42;;;;;;;;;;10151976;28;20158;-71
2022/11/08 03:23:39;;;;;;;24.65;19.70;;;;;;;;;;10152301;28;20095;-71
2022/11/08 03:28:32;;;;;;;29.02;20.27;;;;;;;;;;10152352;28;20068;-71
2022/11/08 03:33:26;;;;;;;22.52;18.23;;;;;;;;;;10151796;28;20055;-71
2022/11/08 03:38:19;;;;;;;37.63;19.38;;;;;;;;;;10151212;28;20613;-71
2022/11/08 03:43:12;;;;;;;22.40;17.52;;;;;;;;;;10150851;28;20051;-71
2022/11/08 03:48:07;;;;;;;20.35;18.15;;;;;;;;;;10151449;28;20071;-70
2022/11/08 03:53:01;;;;;;;22.35;17.00;;;;;;;;;;10151401;28;20049;-70
2022/11/08 03:57:54;;;;;;;17.38;14.77;;;;;;;;;;10150161;28;20140;-70
2022/11/08 04:02:48;;;;;;;20.13;15.68;;;;;;;;;;10151269;28;20052;-70
2022/11/08 04:07:42;;;;;;;19.35;16.88;;;;;;;;;;10149996;28;20468;-70
2022/11/08 04:23:06;;;;;;;21.30;18.08;;;;;;;;;;10146916;28;20509;-70
2022/11/08 04:27:59;;;;;;;20.50;16.90;;;;;;;;;;10149472;28;20071;-71
2022/11/08 04:32:53;;;;;;;21.33;16.83;;;;;;;;;;10149462;28;20423;-72
2022/11/08 04:37:47;;;;;;;19.02;17.02;;;;;;;;;;10149292;28;20049;-70
2022/11/08 04:42:43;;;;;;;22.70;19.98;;;;;;;;;;10144405;28;20098;-70
2022/11/08 04:47:37;;;;;;;22.90;20.45;;;;;;;;;;10150934;28;20068;-72
2022/11/08 04:52:36;;;;;;;29.65;21.73;;;;;;;;;;10148489;28;20049;-70
2022/11/08 04:57:30;;;;;;;23.27;20.75;;;;;;;;;;10144295;28;20040;-71
2022/11/08 05:02:24;;;;;;;22.13;19.77;;;;;;;;;;10141801;28;20084;-71
2022/11/08 05:07:20;;;;;;;22.17;18.50;;;;;;;;;;10146418;28;20048;-70
2022/11/08 05:12:13;;;;;;;18.90;16.15;;;;;;;;;;10150795;28;20075;-70
2022/11/08 05:17:07;;;;;;;19.00;15.75;;;;;;;;;;10143707;28;20052;-71
2022/11/08 05:27:13;;;;;;;19.55;16.02;;;;;;;;;;10129589;28;20126;-69
2022/11/08 05:32:07;;;;;;;17.02;13.98;;;;;;;;;;10137997;28;20414;-70
2022/11/08 05:37:01;;;;;;;17.15;14.75;;;;;;;;;;10137239;28;20041;-70
2022/11/08 05:41:54;;;;;;;18.75;15.57;;;;;;;;;;10139587;28;20064;-70
2022/11/08 05:46:48;;;;;;;15.80;14.07;;;;;;;;;;10138968;28;20094;-70
2022/11/08 05:51:42;;;;;;;17.02;14.05;;;;;;;;;;10141072;28;20075;-70
2022/11/08 05:56:36;;;;;;;19.83;17.70;;;;;;;;;;10147222;28;20052;-70
2022/11/08 06:01:29;;;;;;;23.40;18.00;;;;;;;;;;10146996;28;20056;-71
2022/11/08 06:06:22;;;;;;;22.17;18.33;;;;;;;;;;10145775;28;20049;-70
2022/11/08 06:11:24;;;;;;;18.75;15.45;;;;;;;;;;10146510;28;20456;-70
2022/11/08 06:16:18;;;;;;;17.45;15.57;;;;;;;;;;10137906;28;20131;-72
2022/11/08 06:21:13;;;;;;;19.10;16.73;;;;;;;;;;10142664;28;20080;-72
2022/11/08 06:26:07;;;;;;;19.55;16.23;;;;;;;;;;10139161;28;20057;-71
2022/11/08 06:31:01;;;;;;;16.55;14.77;;;;;;;;;;10150728;28;20048;-73
2022/11/08 06:35:55;;;;;;;20.02;16.48;;;;;;;;;;10153103;28;20127;-71
2022/11/08 06:40:49;;;;;;;20.38;16.38;;;;;;;;;;10140844;28;20048;-76
2022/11/08 06:45:42;;;;;;;20.05;16.75;;;;;;;;;;10147288;28;20083;-75
2022/11/08 06:50:36;;;;;;;21.05;18.20;;;;;;;;;;10132337;28;20087;-74
2022/11/08 06:55:30;;;;;;;20.40;17.40;;;;;;;;;;10140956;28;20053;-73
2022/11/08 07:00:23;;;;;;;21.10;17.38;;;;;;;;;;10127955;28;20476;-77
2022/11/08 07:05:17;;;;;;;21.55;16.50;;;;;;;;;;10134898;28;20122;-84
2022/11/08 07:10:12;;;;;;;18.88;15.75;;;;;;;;;;10137600;28;20087;-72
2022/11/08 07:15:08;;;;;;;26.35;17.55;;;;;;;;;;10128607;28;20053;-73
2022/11/08 07:20:02;;;;;;;25.08;19.15;;;;;;;;;;10125240;28;20049;-76
2022/11/08 07:24:56;;;;;;;26.48;20.52;;;;;;;;;;10128050;28;20052;-76
2022/11/08 07:29:50;;;;;;;34.42;22.52;;;;;;;;;;10146760;28;20119;-75
2022/11/08 07:34:44;;;;;;;34.33;23.90;;;;;;;;;;10124545;28;20427;-74
2022/11/08 07:39:38;;;;;;;26.67;22.60;;;;;;;;;;10141741;28;20048;-75
2022/11/08 07:44:32;;;;;;;48.83;43.65;;;;;;;;;;10142945;28;20792;-75
2022/11/08 07:49:26;;;;;;;36.47;29.10;;;;;;;;;;10147259;28;20545;-79
2022/11/08 07:54:20;;;;;;;33.55;27.70;;;;;;;;;;10154841;28;20054;-72
2022/11/08 07:59:15;;;;;;;30.15;24.90;;;;;;;;;;10145988;28;20040;-76
2022/11/08 08:04:11;;;;;;;31.25;22.80;;;;;;;;;;10159818;28;20419;-74
2022/11/08 08:09:04;;;;;;;25.67;20.75;;;;;;;;;;10158375;28;20391;-76
2022/11/08 08:13:58;;;;;;;27.05;19.70;;;;;;;;;;10149158;28;20830;-75
2022/11/08 08:18:53;;;;;;;25.50;19.02;;;;;;;;;;10148602;28;20082;-75
2022/11/08 08:23:49;;;;;;;30.52;21.60;;;;;;;;;;10156316;28;20053;-76
2022/11/08 08:28:43;;;;;;;21.88;17.52;;;;;;;;;;10148889;28;20063;-76
2022/11/08 08:33:36;;;;;;;38.67;22.33;;;;;;;;;;10150956;28;20048;-75
2022/11/08 08:38:31;;;;;;;27.90;22.08;;;;;;;;;;10174634;28;20048;-77
2022/11/08 08:43:26;;;;;;;26.45;19.98;;;;;;;;;;10136871;28;20048;-74
2022/11/08 08:48:20;;;;;;;23.80;19.60;;;;;;;;;;10137855;28;20404;-79
2022/11/08 08:53:14;;;;;;;24.08;17.98;;;;;;;;;;10160550;28;20051;-78
2022/11/08 08:58:09;;;;;;;23.45;18.23;;;;;;;;;;10147937;28;20045;-78
2022/11/08 09:03:10;;;;;;;25.02;19.90;;;;;;;;;;10160507;28;20106;-78
2022/11/08 09:08:05;;;;;;;32.55;22.50;;;;;;;;;;10147896;28;20106;-78
2022/11/08 09:13:00;;;;;;;22.38;19.80;;;;;;;;;;10151590;28;20102;-77
2022/11/08 09:17:54;;;;;;;28.17;20.50;;;;;;;;;;10149389;28;20048;-77
2022/11/08 09:22:48;;;;;;;30.77;22.45;;;;;;;;;;10147545;28;20175;-77
2022/11/08 09:27:42;;;;;;;27.92;21.17;;;;;;;;;;10151873;28;20053;-77
2022/11/08 09:32:36;;;;;;;26.85;23.38;;;;;;;;;;10147388;28;20053;-77
2022/11/08 09:37:48;;;;;;;29.13;22.52;;;;;;;;;;10147115;28;20166;-77
2022/11/08 09:43:18;;;;;;;24.98;21.42;;;;;;;;;;10146623;28;20048;-77
2022/11/08 09:48:25;;;;;;;26.50;23.90;;;;;;;;;;10136055;28;20051;-75
2022/11/08 09:53:25;;;;;;;26.65;22.75;;;;;;;;;;10148043;28;20136;-72
2022/11/08 09:58:35;;;;;;;24.23;21.48;;;;;;;;;;10148283;28;20558;-73
2022/11/08 10:03:29;;;;;;;25.48;22.23;;;;;;;;;;10128258;28;20079;-71
2022/11/08 10:09:03;;;;;;;26.50;23.50;;;;;;;;;;10143720;28;20076;-75
2022/11/08 10:14:15;;;;;;;29.52;24.40;;;;;;;;;;9958113;28;20106;-73
2022/11/08 10:19:33;;;;;;;29.40;25.95;;;;;;;;;;10148399;28;20116;-75
2022/11/08 10:24:52;;;;;;;27.97;24.87;;;;;;;;;;10144709;28;20060;-75
2022/11/08 10:29:46;;;;;;;28.38;25.40;;;;;;;;;;10142487;28;20079;-75
2022/11/08 10:34:55;;;;;;;27.92;25.13;;;;;;;;;;10145054;28;20049;-75
2022/11/08 10:40:05;;;;;;;27.08;23.63;;;;;;;;;;10147093;28;20109;-75
2022/11/08 10:44:58;;;;;;;29.27;25.13;;;;;;;;;;10137551;28;20071;-75
2022/11/08 10:49:53;;;;;;;27.02;23.10;;;;;;;;;;10177260;28;20384;-74
2022/11/08 10:54:50;;;;;;;;;;;;;;;;;;10157989;28;20501;-73
2022/11/08 10:59:45;;;;;;;27.38;24.67;;;;;;;;;;10153637;28;19920;-74
2022/11/08 11:04:39;;;;;;;26.42;22.92;;;;;;;;;;10151166;28;20056;-71
2022/11/08 11:09:33;;;;;;;28.02;25.08;;;;;;;;;;10154434;28;20127;-68
2022/11/08 11:14:28;;;;;;;34.67;27.02;;;;;;;;;;10152642;28;20052;-69
2022/11/08 11:19:44;;;;;;;28.50;24.83;;;;;;;;;;10150754;28;20044;-69
2022/11/08 11:24:48;;;;;;;27.80;24.80;;;;;;;;;;10151370;28;20803;-69
2022/11/08 11:30:23;;;;;;;27.98;22.73;;;;;;;;;;10151407;28;20051;-68
2022/11/08 11:35:39;;;;;;;27.20;24.13;;;;;;;;;;10146175;28;20575;-68
2022/11/08 11:40:43;;;;;;;31.17;26.92;;;;;;;;;;10129763;28;20052;-68
2022/11/08 11:45:45;;;;;;;28.80;25.75;;;;;;;;;;10131867;28;20131;-69
2022/11/08 11:50:40;;;;;;;31.27;25.40;;;;;;;;;;10146893;28;20052;-69
2022/11/08 11:55:59;;;;;;;32.15;27.45;;;;;;;;;;10150598;28;20049;-69
2022/11/08 12:01:09;;;;;;;29.27;26.17;;;;;;;;;;10149445;28;20109;-68
2022/11/08 12:06:30;;;;;;;33.28;25.95;;;;;;;;;;10133459;28;20048;-69
2022/11/08 12:11:53;;;;;;;29.08;25.45;;;;;;;;;;10159186;28;20056;-68
2022/11/08 12:17:02;;;;;;;29.15;24.90;;;;;;;;;;10116214;28;20052;-68
2022/11/08 12:22:26;;;;;;;26.10;23.30;;;;;;;;;;10149693;28;20061;-67
2022/11/08 12:27:39;;;;;;;29.35;25.98;;;;;;;;;;10154111;28;20056;-67
2022/11/08 12:32:53;;;;;;;27.83;24.85;;;;;;;;;;10149190;28;20053;-67
2022/11/08 12:37:49;;;;;;;26.48;23.67;;;;;;;;;;10148919;28;20105;-68
2022/11/08 12:43:09;;;;;;;28.48;24.08;;;;;;;;;;10149399;28;20056;-68
2022/11/08 12:48:30;;;;;;;31.33;27.60;;;;;;;;;;10148060;28;20114;-68
2022/11/08 12:53:47;;;;;;;31.02;25.30;;;;;;;;;;10152548;28;20044;-68
2022/11/08 12:58:44;;;;;;;29.30;26.33;;;;;;;;;;10162141;28;20049;-67
2022/11/08 13:03:41;;;;;;;31.60;25.45;;;;;;;;;;10158711;28;20060;-67
2022/11/08 13:08:43;;;;;;;29.83;26.48;;;;;;;;;;10147589;28;20381;-68
2022/11/08 13:13:59;;;;;;;28.48;25.42;;;;;;;;;;10146421;28;20063;-75
2022/11/08 13:18:58;;;;;;;30.98;26.30;;;;;;;;;;10140785;28;20050;-76
2022/11/08 13:23:51;;;;;;;30.55;24.48;;;;;;;;;;10146359;28;20126;-77
2022/11/08 13:28:45;;;;;;;27.23;24.42;;;;;;;;;;10138025;28;20426;-76
2022/11/08 13:34:04;;;;;;;30.30;25.42;;;;;;;;;;10148099;28;20400;-77
2022/11/08 13:39:18;;;;;;;29.93;26.83;;;;;;;;;;10147022;28;20040;-75
2022/11/08 13:44:49;;;;;;;28.73;25.63;;;;;;;;;;10158199;28;20048;-77
2022/11/08 13:49:43;;;;;;;35.35;29.17;;;;;;;;;;10152320;28;20052;-76
2022/11/08 13:54:49;;;;;;;30.85;27.65;;;;;;;;;;10145126;28;20056;-74
2022/11/08 13:59:42;;;;;;;32.28;28.95;;;;;;;;;;10139592;28;20068;-73
2022/11/08 14:04:39;;;;;;;32.72;27.95;;;;;;;;;;10139616;28;20082;-72
2022/11/08 14:09:41;;;;;;;34.20;28.08;;;;;;;;;;10124920;28;20044;-76
2022/11/08 14:14:46;;;;;;;31.38;26.73;;;;;;;;;;10129115;28;20043;-76
2022/11/08 14:19:41;;;;;;;33.30;28.58;;;;;;;;;;10145678;28;20420;-77
2022/11/08 14:24:57;;;;;;;32.60;27.05;;;;;;;;;;10135105;28;20056;-75
2022/11/08 14:30:32;;;;;;;34.65;29.00;;;;;;;;;;10154133;28;20053;-82
2022/11/08 14:35:25;;;;;;;29.75;26.55;;;;;;;;;;10167978;28;20041;-77
2022/11/08 14:40:24;;;;;;;33.55;27.55;;;;;;;;;;10166673;28;20094;-79
2022/11/08 14:45:18;;;;;;;37.90;28.33;;;;;;;;;;10159577;28;20052;-78
2022/11/08 14:50:21;;;;;;;34.15;29.15;;;;;;;;;;10137153;28;20052;-79
2022/11/08 14:55:22;;;;;;;33.97;28.98;;;;;;;;;;10152494;28;20457;-77
2022/11/08 15:00:20;;;;;;;37.53;28.98;;;;;;;;;;10150445;28;20045;-78
2022/11/08 15:05:29;;;;;;;33.90;28.98;;;;;;;;;;10148867;28;20048;-78
2022/11/08 15:10:23;;;;;;;34.95;29.50;;;;;;;;;;10145666;28;20072;-79
2022/11/08 15:15:26;;;;;;;39.97;28.90;;;;;;;;;;10151748;28;20052;-80
2022/11/08 15:20:21;;;;;;;33.42;27.95;;;;;;;;;;10134066;28;20125;-77
2022/11/08 15:25:13;;;;;;;36.05;30.08;;;;;;;;;;10149592;28;20477;-80
2022/11/08 15:30:07;;;;;;;34.67;28.45;;;;;;;;;;10150396;28;20036;-75
2022/11/08 15:35:01;;;;;;;35.42;28.88;;;;;;;;;;10151435;28;20448;-75
2022/11/08 15:39:54;;;;;;;35.70;29.30;;;;;;;;;;10159866;28;20043;-78
2022/11/08 15:44:58;;;;;;;36.05;28.30;;;;;;;;;;10174641;28;20052;-77
2022/11/08 15:49:52;;;;;;;35.53;27.80;;;;;;;;;;10171154;28;20131;-76
2022/11/08 15:54:46;;;;;;;40.70;30.00;;;;;;;;;;10157244;28;20045;-78
2022/11/08 15:59:41;;;;;;;35.97;29.75;;;;;;;;;;10107958;28;20060;-77
2022/11/08 16:04:34;;;;;;;35.08;29.98;;;;;;;;;;10151912;28;20667;-75
2022/11/08 16:09:28;;;;;;;41.20;29.25;;;;;;;;;;10149963;28;20048;-79
2022/11/08 16:14:23;;;;;;;45.33;29.42;;;;;;;;;;10139154;28;20052;-78
2022/11/08 16:19:22;;;;;;;38.78;29.60;;;;;;;;;;10130945;28;20380;-75
2022/11/08 16:24:16;;;;;;;39.03;31.57;;;;;;;;;;10148765;28;20480;-77
2022/11/08 16:29:21;;;;;;;36.58;30.42;;;;;;;;;;10149581;28;20041;-78
2022/11/08 16:34:15;;;;;;;45.10;36.80;;;;;;;;;;10147797;28;20075;-77
2022/11/08 16:39:14;;;;;;;46.30;34.80;;;;;;;;;;10153081;28;20123;-77
2022/11/08 16:44:09;;;;;;;45.20;33.85;;;;;;;;;;10147661;28;20044;-79
2022/11/08 16:49:05;;;;;;;39.17;31.80;;;;;;;;;;10166495;28;20050;-78
2022/11/08 16:53:59;;;;;;;39.85;32.30;;;;;;;;;;10165696;28;20127;-75
2022/11/08 16:58:53;;;;;;;43.05;33.25;;;;;;;;;;10152377;28;20048;-77
2022/11/08 17:03:47;;;;;;;39.60;33.05;;;;;;;;;;10147391;28;20044;-79
2022/11/08 17:08:48;;;;;;;44.88;35.33;;;;;;;;;;10144699;28;20040;-76
2022/11/08 17:13:42;;;;;;;46.03;35.03;;;;;;;;;;10144171;28;20052;-75
2022/11/08 17:18:36;;;;;;;46.97;36.05;;;;;;;;;;10142109;28;20404;-75
2022/11/08 17:23:30;;;;;;;44.58;36.80;;;;;;;;;;10146115;28;20060;-75
2022/11/08 17:28:23;;;;;;;49.22;40.58;;;;;;;;;;10145643;28;20060;-69
2022/11/08 17:33:17;;;;;;;48.70;37.78;;;;;;;;;;10153479;28;20054;-68
2022/11/08 17:38:14;;;;;;;46.35;37.10;;;;;;;;;;10145857;28;20048;-68
2022/11/08 17:43:08;;;;;;;47.70;37.15;;;;;;;;;;10145496;28;20471;-70
2022/11/08 17:48:02;;;;;;;48.03;36.88;;;;;;;;;;10146171;28;20049;-68
2022/11/08 17:52:56;;;;;;;45.05;37.03;;;;;;;;;;10146161;28;20105;-68
2022/11/08 17:57:50;;;;;;;45.60;36.25;;;;;;;;;;10156195;28;20051;-68
2022/11/08 18:02:45;;;;;;;51.78;38.00;;;;;;;;;;10145891;28;20048;-67
2022/11/08 18:07:39;;;;;;;48.42;37.17;;;;;;;;;;10146187;28;20040;-67
2022/11/08 18:12:34;;;;;;;44.17;36.15;;;;;;;;;;10145014;28;20499;-68
2022/11/08 18:17:28;;;;;;;46.03;36.30;;;;;;;;;;10145287;28;20055;-68
2022/11/08 18:22:22;;;;;;;48.60;37.63;;;;;;;;;;10145398;28;20075;-67
2022/11/08 18:27:16;;;;;;;53.40;40.85;;;;;;;;;;10147300;28;20056;-69
2022/11/08 18:32:11;;;;;;;59.63;47.35;;;;;;;;;;10149987;28;20052;-71
2022/11/08 18:37:05;;;;;;;58.78;46.35;;;;;;;;;;10146537;28;20570;-67
2022/11/08 18:42:00;;;;;;;61.97;50.90;;;;;;;;;;10138402;28;20128;-67
2022/11/08 18:46:54;;;;;;;92.93;64.80;;;;;;;;;;10143120;28;20065;-67
2022/11/08 18:51:50;;;;;;;85.88;62.47;;;;;;;;;;10140605;28;20045;-67
2022/11/08 18:56:45;;;;;;;70.35;57.17;;;;;;;;;;10149486;28;20055;-67
2022/11/08 19:01:39;;;;;;;81.20;60.35;;;;;;;;;;10138675;28;20051;-67
2022/11/08 19:06:34;;;;;;;72.22;54.55;;;;;;;;;;10151189;28;20052;-68
2022/11/08 19:11:31;;;;;;;71.60;54.67;;;;;;;;;;10145449;28;20044;-67
2022/11/08 19:16:28;;;;;;;;;;;;;;;;;;10148292;28;20055;-67
2022/11/08 19:21:25;;;;;;;71.20;54.28;;;;;;;;;;10147594;28;19950;-67
2022/11/08 19:26:25;;;;;;;61.38;49.65;;;;;;;;;;10145109;28;20068;-67
2022/11/08 19:31:21;;;;;;;63.72;49.30;;;;;;;;;;10141282;28;20044;-65
2022/11/08 19:36:19;;;;;;;66.57;50.22;;;;;;;;;;10148337;28;20072;-67
2022/11/08 19:41:14;;;;;;;60.92;47.42;;;;;;;;;;10148677;28;20074;-67
2022/11/08 19:46:12;;;;;;;61.47;46.92;;;;;;;;;;10149089;28;20047;-69
2022/11/08 19:51:15;;;;;;;54.67;43.60;;;;;;;;;;10149110;28;20447;-68
2022/11/08 19:56:11;;;;;;;51.38;43.00;;;;;;;;;;10145658;28;20102;-66
2022/11/08 20:01:14;;;;;;;54.08;45.60;;;;;;;;;;10133786;28;20040;-65
2022/11/08 20:06:08;;;;;;;64.10;50.35;;;;;;;;;;10148862;28;20041;-65
2022/11/08 20:11:12;;;;;;;58.05;48.35;;;;;;;;;;10138957;28;20063;-66
2022/11/08 20:16:23;;;;;;;61.67;51.03;;;;;;;;;;10142158;28;20135;-66
2022/11/08 20:21:23;;;;;;;64.07;55.30;;;;;;;;;;10141835;28;20052;-66
2022/11/08 20:26:19;;;;;;;65.43;55.35;;;;;;;;;;10140669;28;20131;-67
2022/11/08 20:31:15;;;;;;;66.57;55.20;;;;;;;;;;10141098;28;20049;-66
2022/11/08 20:36:16;;;;;;;71.63;55.90;;;;;;;;;;10144025;28;20488;-66
2022/11/08 20:41:13;;;;;;;57.25;50.25;;;;;;;;;;10149845;28;20424;-66
2022/11/08 20:46:14;;;;;;;61.53;51.42;;;;;;;;;;10141624;28;20056;-66
2022/11/08 20:51:07;;;;;;;54.92;44.55;;;;;;;;;;10139513;28;20052;-66
2022/11/08 20:56:11;;;;;;;52.63;41.25;;;;;;;;;;10140714;28;20050;-65
2022/11/08 21:01:05;;;;;;;50.80;41.05;;;;;;;;;;10137168;28;20558;-67
2022/11/08 21:06:01;;;;;;;50.08;41.20;;;;;;;;;;10135313;28;20084;-66
2022/11/08 21:10:55;;;;;;;54.88;42.65;;;;;;;;;;10120450;28;20049;-65
2022/11/08 21:15:48;;;;;;;61.15;48.38;;;;;;;;;;10140042;28;20052;-66
2022/11/08 21:20:42;;;;;;;58.85;48.15;;;;;;;;;;10143823;28;20539;-67
2022/11/08 21:25:37;;;;;;;58.78;46.55;;;;;;;;;;10143280;28;20060;-66
2022/11/08 21:30:31;;;;;;;55.83;46.97;;;;;;;;;;10142282;28;20226;-66
2022/11/08 21:35:24;;;;;;;55.33;46.45;;;;;;;;;;10134663;28;20051;-67
2022/11/08 21:40:18;;;;;;;52.70;44.33;;;;;;;;;;10134762;28;20053;-67
2022/11/08 21:45:13;;;;;;;56.67;43.70;;;;;;;;;;10138578;28;20127;-67
2022/11/08 21:50:09;;;;;;;53.25;45.92;;;;;;;;;;10139823;28;20102;-67
2022/11/08 21:55:04;;;;;;;84.53;48.35;;;;;;;;;;10136515;28;20048;-68
2022/11/08 21:59:57;;;;;;;60.42;50.22;;;;;;;;;;10135889;28;20634;-67
2022/11/08 22:04:51;;;;;;;69.45;51.58;;;;;;;;;;10134548;28;20045;-66
2022/11/08 22:09:45;;;;;;;61.00;51.00;;;;;;;;;;10131603;28;20424;-66
2022/11/08 22:14:40;;;;;;;65.05;50.67;;;;;;;;;;10128352;28;20495;-68
2022/11/08 22:19:33;;;;;;;58.95;49.50;;;;;;;;;;10140972;28;20048;-68
2022/11/08 22:24:27;;;;;;;63.80;51.67;;;;;;;;;;10139437;28;20064;-67
2022/11/08 22:29:20;;;;;;;57.83;47.42;;;;;;;;;;10128073;28;20526;-68
2022/11/08 22:34:14;;;;;;;59.17;46.28;;;;;;;;;;10138146;28;20530;-67
2022/11/08 22:39:11;;;;;;;60.67;49.28;;;;;;;;;;10143558;28;20071;-69
2022/11/08 22:44:05;;;;;;;60.00;47.85;;;;;;;;;;10131874;28;20484;-67
2022/11/08 22:49:04;;;;;;;56.40;45.78;;;;;;;;;;10143358;28;20041;-66
2022/11/08 22:53:58;;;;;;;53.25;45.90;;;;;;;;;;10140414;28;20523;-66
2022/11/08 22:58:52;;;;;;;54.78;45.92;;;;;;;;;;10149564;28;20509;-66
2022/11/08 23:03:46;;;;;;;57.17;48.47;;;;;;;;;;10143127;28;20044;-66
2022/11/08 23:08:39;;;;;;;59.17;47.20;;;;;;;;;;10145225;28;20083;-66
2022/11/08 23:24:19;;;;;;;57.05;45.42;;;;;;;;;;10147634;28;20048;-66
2022/11/08 23:34:26;;;;;;;48.67;43.33;;;;;;;;;;10165233;28;20044;-65
2022/11/08 23:39:21;;;;;;;56.17;46.45;;;;;;;;;;10153846;28;20044;-65
2022/11/08 23:44:24;;;;;;;55.30;43.28;;;;;;;;;;10133491;28;20052;-66
2022/11/08 23:49:17;;;;;;;58.05;47.03;;;;;;;;;;10150635;28;20106;-66
2022/11/08 23:54:10;;;;;;;57.17;46.22;;;;;;;;;;10151608;28;20088;-66
2022/11/08 23:59:04;;;;;;;55.72;46.70;;;;;;;;;;10159047;28;20487;-66
